Time;durP1;ratioP1;P1;durP2;ratioP2;P2;SDS_P1;SDS_P2;PMS_P1;PMS_P2;Temp;Humidity;BMP_temperature;BMP_pressure;BME280_temperature;BME280_humidity;BME280_pressure;Samples;Min_cycle;Max_cycle;Signal;HPM_P1;HPM_P2
2022/09/16 00:01:20;;;;;;;23.98;9.33;;;;;;;21.77;76.30;98885.09;1663179;86;21236;-82
2022/09/16 00:04:26;;;;;;;67.85;9.03;;;;;;;21.63;76.40;98889.86;1663788;86;21272;-82
2022/09/16 00:07:31;;;;;;;40.58;8.65;;;;;;;21.48;76.73;98887.69;1664242;86;21205;-81
2022/09/16 00:10:37;;;;;;;53.28;9.25;;;;;;;21.52;76.80;98886.84;1663055;86;21781;-80
2022/09/16 00:13:43;;;;;;;66.28;10.32;;;;;;;21.52;76.62;98890.19;1664113;86;21185;-82
2022/09/16 00:16:48;;;;;;;23.83;10.68;;;;;;;21.44;76.94;98890.20;1663176;86;21215;-82
2022/09/16 00:19:55;;;;;;;49.45;9.23;;;;;;;21.48;76.90;98889.91;1663404;86;21228;-82
2022/09/16 00:23:00;;;;;;;36.05;9.50;;;;;;;21.38;77.37;98892.72;1663116;86;21199;-81
2022/09/16 00:26:06;;;;;;;33.08;9.38;;;;;;;21.41;77.37;98896.34;1664099;86;21199;-81
2022/09/16 00:29:12;;;;;;;36.42;9.35;;;;;;;21.30;77.81;98898.25;1663626;86;21765;-82
2022/09/16 00:32:17;;;;;;;48.08;9.08;;;;;;;21.40;77.94;98891.88;1663639;86;21212;-81
2022/09/16 00:35:23;;;;;;;31.77;10.50;;;;;;;21.30;78.32;98889.91;1663134;86;21268;-82
2022/09/16 00:38:28;;;;;;;52.08;10.93;;;;;;;21.38;78.45;98892.72;1664137;86;21208;-82
2022/09/16 00:41:37;;;;;;;34.15;9.33;;;;;;;21.57;77.86;98888.78;1664099;86;21712;-81
2022/09/16 00:45:15;;;;;;;36.48;8.33;;;;;;;21.68;77.53;98892.62;1663994;86;21274;-82
2022/09/16 00:48:24;;;;;;;54.23;9.10;;;;;;;21.53;78.24;98887.67;1687264;85;21941;-82
2022/09/16 00:51:31;;;;;;;37.55;9.75;;;;;;;21.62;77.67;98889.59;1687760;85;21189;-83
2022/09/16 00:54:30;;;;;;;62.75;10.53;;;;;;;21.63;77.90;98891.81;1687281;85;21220;-82
2022/09/16 00:57:24;;;;;;;60.92;11.60;;;;;;;21.79;77.69;98887.05;1687925;85;21169;-81
2022/09/16 01:00:30;;;;;;;64.45;11.45;;;;;;;21.81;77.63;98877.84;1686661;85;21766;-82
2022/09/16 01:03:36;;;;;;;49.65;12.60;;;;;;;21.89;77.70;98868.34;1686896;85;21730;-82
2022/09/16 01:06:44;;;;;;;85.85;12.18;;;;;;;21.87;78.12;98862.78;1687913;85;21169;-82
2022/09/16 01:09:50;;;;;;;82.40;11.45;;;;;;;22.02;78.11;98866.04;1688053;85;21220;-82
2022/09/16 01:13:00;;;;;;;101.55;13.20;;;;;;;21.89;78.78;98858.61;1686594;85;21785;-82
2022/09/16 01:16:32;;;;;;;115.57;13.00;;;;;;;21.86;78.80;98863.91;1687876;85;21252;-82
2022/09/16 01:20:06;;;;;;;101.95;12.45;;;;;;;21.95;78.88;98868.59;1687476;85;21766;-82
2022/09/16 01:23:40;;;;;;;107.58;14.23;;;;;;;22.07;78.60;98864.09;1687311;85;21232;-82
2022/09/16 01:26:55;;;;;;;80.80;14.98;;;;;;;21.95;79.03;98868.59;1687852;85;21168;-82
2022/09/16 01:30:00;;;;;;;88.75;14.55;;;;;;;22.10;78.71;98869.06;1687250;85;21255;-82
2022/09/16 01:33:12;;;;;;;67.20;14.78;;;;;;;22.15;78.54;98870.45;1687363;85;21240;-81
2022/09/16 01:36:34;;;;;;;45.75;13.30;;;;;;;22.13;78.65;98869.92;1687831;85;21185;-82
2022/09/16 01:40:08;;;;;;;38.38;15.40;;;;;;;22.17;78.46;98871.58;1687255;85;21217;-82
2022/09/16 01:43:27;;;;;;;42.67;14.23;;;;;;;22.06;78.78;98871.31;1687449;85;21189;-82
2022/09/16 01:46:45;;;;;;;38.15;13.60;;;;;;;22.16;78.63;98866.58;1686811;85;21580;-82
2022/09/16 01:50:13;;;;;;;43.42;13.80;;;;;;;22.23;78.07;98869.03;1687120;85;21173;-81
2022/09/16 01:53:41;;;;;;;42.43;16.07;;;;;;;22.24;78.16;98874.04;1687447;85;21750;-81
2022/09/16 01:57:17;;;;;;;35.25;15.48;;;;;;;22.28;78.06;98871.78;1687873;85;21188;-82
2022/09/16 02:00:23;;;;;;;24.10;16.23;;;;;;;22.31;77.88;98866.21;1686883;85;21200;-81
2022/09/16 02:03:40;;;;;;;65.90;17.15;;;;;;;22.41;77.49;98871.15;1686525;85;21218;-81
2022/09/16 02:06:46;;;;;;;58.95;17.92;;;;;;;22.31;77.81;98873.17;1687915;85;21193;-81
2022/09/16 02:10:03;;;;;;;36.17;17.85;;;;;;;22.28;78.27;98879.31;1687091;85;21224;-81
2022/09/16 02:13:13;;;;;;;74.60;16.67;;;;;;;22.15;78.87;98878.81;1687347;85;21220;-81
2022/09/16 02:16:22;;;;;;;56.92;16.52;;;;;;;22.36;78.16;98874.53;1687811;85;21165;-81
2022/09/16 02:19:26;;;;;;;56.18;15.25;;;;;;;22.29;78.62;98876.23;1687423;85;21773;-81
2022/09/16 02:22:24;;;;;;;65.70;16.15;;;;;;;21.88;79.33;98873.65;1687830;85;21220;-81
2022/09/16 02:25:28;;;;;;;78.15;15.70;;;;;;;21.62;81.49;98874.29;1686522;85;21228;-81
2022/09/16 02:28:37;;;;;;;81.57;16.62;;;;;;;21.49;82.24;98876.83;1686496;85;21197;-81
2022/09/16 02:31:43;;;;;;;59.20;15.18;;;;;;;21.49;82.28;98881.00;1686627;85;21213;-82
2022/09/16 02:34:54;;;;;;;59.93;15.75;;;;;;;21.59;82.09;98868.45;1686888;85;21201;-82
2022/09/16 02:38:13;;;;;;;58.23;14.87;;;;;;;21.29;82.59;98873.52;1687933;85;21204;-82
2022/09/16 02:41:19;;;;;;;67.67;15.50;;;;;;;21.47;82.25;98882.69;1688189;85;21173;-82
2022/09/16 02:44:24;;;;;;;57.03;16.15;;;;;;;21.53;81.87;98882.94;1686594;85;21208;-81
2022/09/16 02:47:43;;;;;;;56.65;15.70;;;;;;;21.65;81.05;98880.69;1687769;85;21805;-82
2022/09/16 02:50:53;;;;;;;82.95;14.65;;;;;;;21.71;80.93;98886.23;1676758;85;21217;-82
2022/09/16 02:54:04;;;;;;;46.63;14.55;;;;;;;21.88;79.97;98892.30;1687502;85;21757;-82
2022/09/16 02:57:10;;;;;;;29.23;16.50;;;;;;;21.75;80.30;98887.34;1687760;85;21154;-82
2022/09/16 03:00:16;;;;;;;43.02;15.93;;;;;;;21.81;79.93;98888.98;1686916;85;21235;-82
2022/09/16 03:03:23;;;;;;;35.33;16.82;;;;;;;21.69;80.55;98894.88;1687345;85;21229;-82
2022/09/16 03:06:35;;;;;;;41.65;16.30;;;;;;;21.91;79.84;98893.10;1666954;85;21180;-82
2022/09/16 03:09:43;;;;;;;46.08;16.15;;;;;;;22.17;78.86;98881.33;1687322;85;21233;-83
2022/09/16 03:13:18;;;;;;;44.18;16.00;;;;;;;22.28;77.93;98886.27;1686162;85;21816;-82
2022/09/16 03:16:39;;;;;;;39.53;15.40;;;;;;;22.32;77.49;98884.58;1688042;85;21181;-81
2022/09/16 03:20:15;;;;;;;33.65;14.58;;;;;;;22.31;77.44;98878.74;1688008;85;21231;-81
2022/09/16 03:23:38;;;;;;;38.17;14.58;;;;;;;22.09;78.18;98875.75;1687881;85;21169;-82
2022/09/16 03:27:09;;;;;;;46.90;13.00;;;;;;;22.23;77.47;98874.60;1688072;85;21216;-82
2022/09/16 03:30:17;;;;;;;26.73;13.95;;;;;;;21.94;78.41;98884.19;1687928;85;21253;-82
2022/09/16 03:33:33;;;;;;;66.53;13.25;;;;;;;21.69;78.71;98901.83;1687998;85;21201;-82
2022/09/16 03:36:41;;;;;;;34.70;13.80;;;;;;;21.73;79.12;98911.81;1688040;85;21169;-82
2022/09/16 03:39:47;;;;;;;35.10;12.88;;;;;;;21.91;78.35;98906.45;1687157;85;21287;-82
2022/09/16 03:42:56;;;;;;;46.15;14.25;;;;;;;21.70;79.12;98909.05;1687817;85;21782;-81
2022/09/16 03:46:03;;;;;;;68.95;14.00;;;;;;;21.74;79.35;98910.69;1686614;85;22131;-82
2022/09/16 03:49:09;;;;;;;49.20;15.05;;;;;;;22.11;77.80;98921.41;1687124;85;21205;-81
2022/09/16 03:52:17;;;;;;;86.15;13.15;;;;;;;22.23;76.89;98922.50;1687268;85;21514;-82
2022/09/16 03:55:22;;;;;;;65.35;14.28;;;;;;;22.14;76.94;98923.09;1686763;85;21217;-82
2022/09/16 03:58:29;;;;;;;76.45;12.58;;;;;;;22.32;76.54;98923.01;1687895;85;21245;-82
2022/09/16 04:01:34;;;;;;;59.60;11.65;;;;;;;22.36;76.29;98931.63;1687849;85;21217;-82
2022/09/16 04:04:40;;;;;;;48.87;11.08;;;;;;;22.22;77.05;98918.89;1687044;85;21232;-81
2022/09/16 04:07:47;;;;;;;24.90;11.35;;;;;;;22.26;76.84;98921.38;1687861;85;21173;-81
2022/09/16 04:11:07;;;;;;;43.95;10.95;;;;;;;21.98;77.93;98917.30;1687893;85;21346;-81
2022/09/16 04:14:07;;;;;;;43.35;9.73;;;;;;;22.07;77.48;98912.81;1686814;85;21221;-81
2022/09/16 04:17:06;;;;;;;45.45;9.23;;;;;;;22.26;76.85;98910.80;1662890;86;21727;-81
2022/09/16 04:20:12;;;;;;;41.95;9.50;;;;;;;22.16;76.89;98907.48;1663993;86;21220;-81
2022/09/16 04:23:17;;;;;;;31.27;9.65;;;;;;;22.22;77.02;98902.75;1664183;86;21200;-82
2022/09/16 04:26:23;;;;;;;25.30;8.90;;;;;;;22.06;77.60;98902.77;1661602;86;21789;-79
2022/09/16 04:29:31;;;;;;;26.50;9.63;;;;;;;22.18;77.53;98897.73;1663781;86;21228;-79
2022/09/16 04:32:37;;;;;;;23.22;10.88;;;;;;;22.30;77.32;98897.94;1664306;86;21196;-79
2022/09/16 04:35:45;;;;;;;20.25;9.78;;;;;;;22.22;77.82;98905.53;1663277;86;21260;-79
2022/09/16 04:38:53;;;;;;;25.10;9.60;;;;;;;22.14;78.29;98911.95;1664086;86;21251;-78
2022/09/16 04:41:59;;;;;;;13.25;10.05;;;;;;;22.42;77.87;98909.58;1664301;86;21719;-79
2022/09/16 04:45:04;;;;;;;24.05;8.93;;;;;;;22.26;78.77;98899.66;1663357;86;21228;-78
2022/09/16 04:48:12;;;;;;;15.65;9.68;;;;;;;22.27;78.76;98890.19;1664121;86;21173;-79
2022/09/16 04:51:19;;;;;;;13.20;10.98;;;;;;;22.32;78.43;98892.94;1664009;86;21236;-79
2022/09/16 04:54:24;;;;;;;19.87;11.10;;;;;;;22.51;78.15;98897.28;1684648;83;21244;-78
2022/09/16 04:57:31;;;;;;;13.15;11.70;;;;;;;22.60;78.23;98907.52;1689236;85;21177;-79
2022/09/16 05:00:37;;;;;;;18.35;12.28;;;;;;;22.87;77.60;98906.22;1687992;85;21232;-78
2022/09/16 05:03:43;;;;;;;16.60;12.13;;;;;;;23.03;77.03;98906.38;1689082;85;21165;-78
2022/09/16 05:06:54;;;;;;;21.65;13.70;;;;;;;23.02;77.12;98912.26;1719151;83;21208;-78
2022/09/16 05:10:06;;;;;;;21.25;14.33;;;;;;;23.24;76.60;98906.19;1713924;81;21205;-77
2022/09/16 05:13:05;;;;;;;30.88;15.32;;;;;;;23.14;76.75;98917.70;1742972;80;21195;-77
2022/09/16 05:16:16;;;;;;;22.65;15.00;;;;;;;23.16;76.93;98934.99;1740502;80;21320;-78
2022/09/16 05:19:22;;;;;;;22.20;14.23;;;;;;;23.07;77.37;98935.34;1734769;81;21938;-78
2022/09/16 05:22:30;;;;;;;19.10;13.65;;;;;;;23.25;77.29;98934.37;1717905;81;21208;-78
2022/09/16 05:25:36;;;;;;;17.00;12.80;;;;;;;23.37;77.40;98923.07;1740854;81;21245;-78
2022/09/16 05:28:42;;;;;;;23.18;14.83;;;;;;;23.71;76.71;98905.44;1744420;80;21254;-77
2022/09/16 05:31:48;;;;;;;22.73;14.38;;;;;;;23.69;75.96;98902.95;1733786;81;21216;-79
2022/09/16 05:34:54;;;;;;;15.80;12.13;;;;;;;23.68;76.41;98905.48;1717484;81;21232;-79
2022/09/16 05:37:59;;;;;;;18.00;12.28;;;;;;;23.77;75.47;98913.22;1735496;81;21223;-79
2022/09/16 05:41:11;;;;;;;18.05;12.50;;;;;;;23.78;75.19;98900.91;1704271;81;21219;-78
2022/09/16 05:44:17;;;;;;;22.62;13.80;;;;;;;23.93;74.97;98902.12;1736916;81;21156;-80
2022/09/16 05:47:22;;;;;;;17.85;11.73;;;;;;;24.05;74.71;98902.53;1731616;81;21189;-79
2022/09/16 05:50:29;;;;;;;15.10;9.98;;;;;;;24.10;74.86;98901.07;1719659;81;21904;-79
2022/09/16 05:53:35;;;;;;;15.08;9.63;;;;;;;24.31;74.14;98911.95;1710477;83;21228;-78
2022/09/16 05:56:42;;;;;;;10.40;7.55;;;;;;;24.27;74.32;98913.12;1710365;83;21287;-79
2022/09/16 05:59:55;;;;;;;13.75;9.08;;;;;;;24.25;74.54;98900.59;1705814;83;21316;-79
2022/09/16 06:03:03;;;;;;;9.45;8.03;;;;;;;24.23;74.26;98901.73;1713478;83;22660;-78
2022/09/16 06:06:38;;;;;;;12.53;7.92;;;;;;;24.25;75.04;98895.02;1705156;83;22836;-78
2022/09/16 06:09:44;;;;;;;10.00;6.65;;;;;;;24.50;75.44;98884.88;1710614;83;22111;-78
2022/09/16 06:12:49;;;;;;;17.37;7.40;;;;;;;24.68;75.71;98886.84;1697846;83;21785;-78
2022/09/16 06:15:56;;;;;;;10.13;7.50;;;;;;;24.81;75.29;98883.85;1691164;83;21272;-78
2022/09/16 06:19:02;;;;;;;13.22;7.22;;;;;;;25.23;74.93;98885.67;1707944;81;21224;-78
2022/09/16 06:22:09;;;;;;;10.00;6.80;;;;;;;25.66;74.34;98888.80;1723902;83;21162;-79
2022/09/16 06:25:30;;;;;;;11.80;5.95;;;;;;;26.03;72.99;98890.59;1717146;82;21208;-78
2022/09/16 06:28:36;;;;;;;8.28;5.33;;;;;;;26.29;71.55;98892.83;1711866;81;21321;-79
2022/09/16 06:31:42;;;;;;;7.03;4.92;;;;;;;26.19;71.35;98886.88;1682976;83;21230;-80
2022/09/16 06:34:49;;;;;;;9.95;5.53;;;;;;;26.46;69.24;98886.03;1709876;82;21240;-80
2022/09/16 06:37:55;;;;;;;10.35;4.40;;;;;;;26.79;67.37;98883.02;1682480;83;21252;-79
2022/09/16 06:41:00;;;;;;;18.10;5.25;;;;;;;26.42;68.35;98889.17;1698342;82;21437;-78
2022/09/16 06:44:06;;;;;;;8.15;4.70;;;;;;;26.60;67.00;98882.61;1680954;83;21272;-78
2022/09/16 06:47:13;;;;;;;8.58;4.28;;;;;;;26.79;66.56;98880.21;1711925;81;21823;-79
2022/09/16 06:50:19;;;;;;;9.08;3.90;;;;;;;26.84;66.13;98866.06;1684243;83;21248;-79
2022/09/16 06:53:25;;;;;;;8.20;4.53;;;;;;;26.78;65.80;98872.95;1708463;83;21775;-79
2022/09/16 06:56:34;;;;;;;9.43;4.83;;;;;;;27.06;65.45;98881.49;1694114;83;21228;-79
2022/09/16 06:59:34;;;;;;;11.65;4.50;;;;;;;27.20;64.93;98879.47;1686676;83;21322;-80
2022/09/16 07:02:40;;;;;;;8.95;4.28;;;;;;;27.44;64.91;98860.03;1714396;81;21173;-80
2022/09/16 07:05:46;;;;;;;6.62;4.03;;;;;;;27.58;64.20;98866.95;1714598;81;21228;-80
2022/09/16 07:08:52;;;;;;;8.10;4.28;;;;;;;27.63;63.44;98859.21;1713669;82;21230;-80
2022/09/16 07:12:01;;;;;;;11.18;4.50;;;;;;;27.71;63.21;98844.41;1708055;82;21709;-80
2022/09/16 07:15:06;;;;;;;4.33;3.57;;;;;;;27.89;62.37;98852.30;1707598;83;21259;-80
2022/09/16 07:18:12;;;;;;;7.75;3.47;;;;;;;27.97;62.19;98857.70;1708655;83;21232;-80
2022/09/16 07:21:20;;;;;;;7.92;3.50;;;;;;;27.99;60.63;98856.78;1708775;82;21200;-80
2022/09/16 07:24:27;;;;;;;6.05;2.90;;;;;;;28.05;59.42;98847.65;1704054;82;21173;-81
2022/09/16 07:27:32;;;;;;;9.08;2.72;;;;;;;28.31;58.23;98850.48;1704832;83;21208;-81
2022/09/16 07:30:38;;;;;;;4.85;2.55;;;;;;;28.48;58.07;98849.13;1705305;82;21194;-80
2022/09/16 07:33:47;;;;;;;5.78;2.80;;;;;;;28.77;57.48;98856.33;1712201;82;21193;-79
2022/09/16 07:36:55;;;;;;;6.33;2.98;;;;;;;28.99;57.50;98848.31;1712590;82;21233;-79
2022/09/16 07:40:02;;;;;;;5.35;2.75;;;;;;;29.38;56.74;98851.20;1709394;82;21610;-79
2022/09/16 07:43:08;;;;;;;6.50;2.90;;;;;;;29.68;55.84;98842.23;1710731;82;21192;-80
2022/09/16 07:46:15;;;;;;;7.62;2.52;;;;;;;29.59;55.61;98840.04;1704724;82;22339;-79
2022/09/16 07:49:21;;;;;;;7.42;2.50;;;;;;;29.71;53.75;98840.16;1702540;83;21192;-79
2022/09/16 07:52:29;;;;;;;4.17;2.25;;;;;;;29.69;52.78;98837.70;1708486;82;21228;-79
2022/09/16 07:55:34;;;;;;;6.67;2.80;;;;;;;29.47;52.70;98836.51;1707252;83;21279;-80
2022/09/16 07:58:40;;;;;;;7.28;2.37;;;;;;;29.41;51.77;98837.86;1706253;83;21280;-79
2022/09/16 08:01:47;;;;;;;7.45;2.83;;;;;;;29.30;52.06;98840.20;1700888;82;21212;-79
2022/09/16 08:04:54;;;;;;;6.75;2.90;;;;;;;29.39;51.58;98833.95;1712003;82;21820;-80
2022/09/16 08:08:00;;;;;;;4.90;2.55;;;;;;;29.48;51.69;98824.07;1709730;83;21522;-80
2022/09/16 08:11:05;;;;;;;8.55;2.70;;;;;;;29.42;52.28;98831.06;1708483;83;21290;-80
2022/09/16 08:14:10;;;;;;;5.70;2.70;;;;;;;29.31;52.90;98826.94;1689564;83;21349;-79
2022/09/16 08:17:15;;;;;;;5.15;2.40;;;;;;;29.33;52.57;98820.41;1692728;83;21201;-79
2022/09/16 08:20:24;;;;;;;6.87;3.17;;;;;;;29.25;52.55;98810.23;1697232;83;21178;-79
2022/09/16 08:23:30;;;;;;;7.03;2.55;;;;;;;29.24;53.15;98807.18;1695340;83;21173;-79
2022/09/16 08:26:35;;;;;;;6.28;2.50;;;;;;;29.39;52.74;98803.56;1698212;83;21234;-80
2022/09/16 08:29:41;;;;;;;5.58;2.98;;;;;;;29.45;52.03;98803.61;1691466;83;21229;-80
2022/09/16 08:32:47;;;;;;;5.33;2.90;;;;;;;29.56;51.37;98797.08;1692266;83;21763;-80
2022/09/16 08:36:16;;;;;;;8.13;2.92;;;;;;;29.43;51.49;98796.09;1692764;83;21198;-80
2022/09/16 08:39:23;;;;;;;4.55;2.50;;;;;;;29.51;51.92;98793.83;1686777;83;21236;-79
2022/09/16 08:42:56;;;;;;;11.05;2.62;;;;;;;29.73;51.53;98789.34;1682917;83;21206;-79
2022/09/16 08:46:12;;;;;;;5.55;2.58;;;;;;;30.00;51.25;98783.78;1699699;83;21189;-79
2022/09/16 08:49:46;;;;;;;5.22;2.60;;;;;;;29.97;50.67;98787.31;1666657;83;21206;-80
2022/09/16 08:52:54;;;;;;;13.60;2.70;;;;;;;29.99;50.30;98789.78;1679040;83;21193;-80
2022/09/16 08:55:59;;;;;;;4.15;2.35;;;;;;;30.24;49.26;98784.55;1698107;83;21349;-80
2022/09/16 08:59:09;;;;;;;9.68;3.02;;;;;;;30.16;49.70;98774.19;1703615;83;21449;-79
2022/09/16 09:02:39;;;;;;;7.87;2.67;;;;;;;30.18;50.70;98773.84;1696037;83;21266;-80
2022/09/16 09:06:03;;;;;;;5.45;2.00;;;;;;;30.09;50.21;98770.22;1696324;83;21203;-80
2022/09/16 09:09:48;;;;;;;8.85;2.00;;;;;;;30.43;48.69;98772.78;1698355;83;21188;-79
2022/09/16 09:13:08;;;;;;;8.98;2.30;;;;;;;30.39;48.08;98770.41;1712571;81;21183;-79
2022/09/16 09:16:32;;;;;;;7.42;2.27;;;;;;;30.57;46.35;98775.91;1708047;83;21227;-79
2022/09/16 09:19:55;;;;;;;4.62;1.92;;;;;;;30.48;45.26;98777.39;1712330;83;21311;-80
2022/09/16 09:23:29;;;;;;;8.93;2.35;;;;;;;30.10;45.94;98769.88;1675544;83;21825;-79
2022/09/16 09:27:00;;;;;;;5.53;2.25;;;;;;;29.82;46.24;98767.33;1703055;83;21169;-79
2022/09/16 09:30:34;;;;;;;3.92;1.87;;;;;;;29.66;47.00;98772.16;1693985;81;21185;-78
2022/09/16 09:33:50;;;;;;;9.05;2.27;;;;;;;29.66;46.60;98769.92;1710515;83;21212;-79
2022/09/16 09:37:30;;;;;;;7.90;2.15;;;;;;;29.54;46.86;98764.41;1711531;83;22671;-79
2022/09/16 09:40:49;;;;;;;4.97;2.10;;;;;;;29.21;47.14;98761.97;1627844;83;21260;-79
2022/09/16 09:44:33;;;;;;;4.37;2.10;;;;;;;29.41;47.58;98759.84;1710657;82;21279;-80
2022/09/16 09:47:50;;;;;;;4.05;1.92;;;;;;;29.39;47.72;98758.51;1717624;83;21313;-80
2022/09/16 09:50:58;;;;;;;5.60;2.02;;;;;;;29.22;48.28;98759.42;1657236;83;21880;-80
2022/09/16 09:54:08;;;;;;;6.58;2.17;;;;;;;29.14;48.49;98756.88;1688751;83;21201;-79
2022/09/16 09:57:19;;;;;;;5.17;2.45;;;;;;;29.08;48.91;98751.75;1713097;83;21571;-79
2022/09/16 10:00:25;;;;;;;6.17;2.52;;;;;;;29.11;49.05;98751.09;1682602;83;21216;-79
2022/09/16 10:03:32;;;;;;;10.25;3.20;;;;;;;28.96;49.86;98763.14;1703691;83;21217;-78
2022/09/16 10:06:40;;;;;;;5.30;2.33;;;;;;;29.20;49.84;98753.29;1700414;83;21780;-79
2022/09/16 10:09:55;;;;;;;4.65;2.67;;;;;;;29.42;49.66;98757.84;1701029;83;21199;-80
2022/09/16 10:12:59;;;;;;;4.25;2.35;;;;;;;29.44;49.67;98761.13;1666292;85;21285;-80
2022/09/16 10:16:22;;;;;;;8.83;2.55;;;;;;;29.73;49.14;98761.75;1662193;84;21333;-80
2022/09/16 10:19:31;;;;;;;6.95;2.90;;;;;;;30.07;47.84;98753.66;1695878;83;21750;-80
2022/09/16 10:22:39;;;;;;;8.28;2.75;;;;;;;30.33;46.57;98749.83;1691285;83;21194;-80
2022/09/16 10:25:44;;;;;;;7.92;2.98;;;;;;;30.54;45.99;98748.64;1699733;83;21243;-80
2022/09/16 10:28:51;;;;;;;11.33;2.47;;;;;;;30.70;45.64;98748.81;1666646;84;21366;-80
2022/09/16 10:31:58;;;;;;;10.15;2.40;;;;;;;30.65;45.37;98743.39;1686252;83;21292;-80
2022/09/16 10:35:03;;;;;;;7.17;2.37;;;;;;;30.71;44.63;98749.66;1692340;83;21217;-80
2022/09/16 10:38:22;;;;;;;6.00;2.33;;;;;;;30.70;44.83;98751.63;1678841;83;21242;-80
2022/09/16 10:41:49;;;;;;;5.10;2.42;;;;;;;30.54;44.19;98750.64;1665376;84;21775;-80
2022/09/16 10:44:55;;;;;;;7.15;2.25;;;;;;;30.64;44.56;98743.16;1690365;83;21145;-80
2022/09/16 10:48:07;;;;;;;4.90;2.30;;;;;;;30.97;43.62;98745.16;1689365;83;21255;-79
2022/09/16 10:51:13;;;;;;;6.33;2.40;;;;;;;30.77;44.09;98742.05;1693476;83;21409;-81
2022/09/16 10:54:33;;;;;;;11.12;2.75;;;;;;;31.06;43.69;98736.00;1690378;83;21219;-79
2022/09/16 10:57:41;;;;;;;5.58;2.27;;;;;;;30.75;43.35;98737.33;1693572;83;21280;-79
2022/09/16 11:01:05;;;;;;;4.83;2.22;;;;;;;30.55;43.78;98729.72;1688590;84;21859;-79
2022/09/16 11:04:31;;;;;;;6.95;2.08;;;;;;;30.25;44.62;98727.02;1694571;83;21215;-79
2022/09/16 11:07:50;;;;;;;9.35;2.10;;;;;;;30.59;44.53;98729.86;1691215;83;22225;-79
2022/09/16 11:11:12;;;;;;;3.92;2.02;;;;;;;30.40;45.23;98727.55;1690514;84;21259;-79
2022/09/16 11:14:35;;;;;;;14.53;2.40;;;;;;;30.34;45.18;98726.09;1672775;84;21280;-79
2022/09/16 11:18:21;;;;;;;7.15;2.20;;;;;;;30.21;45.90;98730.28;1701345;83;21294;-79
2022/09/16 11:21:43;;;;;;;6.42;2.20;;;;;;;30.22;46.27;98727.69;1695852;83;21221;-79
2022/09/16 11:25:06;;;;;;;7.05;2.12;;;;;;;30.05;46.75;98728.61;1680984;84;21478;-80
2022/09/16 11:28:36;;;;;;;6.80;2.30;;;;;;;30.18;46.06;98723.91;1684964;84;21883;-80
2022/09/16 11:32:17;;;;;;;8.08;2.95;;;;;;;30.11;46.22;98712.31;1683904;84;21229;-81
2022/09/16 11:35:40;;;;;;;4.72;2.33;;;;;;;29.93;46.51;98716.47;1684237;84;21200;-81
2022/09/16 11:39:19;;;;;;;8.28;2.05;;;;;;;30.10;46.33;98716.89;1699517;83;21233;-79
2022/09/16 11:42:43;;;;;;;5.33;2.10;;;;;;;30.18;46.53;98711.22;1659158;85;21248;-79
2022/09/16 11:46:09;;;;;;;8.98;1.90;;;;;;;30.10;46.90;98707.03;1682271;84;21270;-80
2022/09/16 11:49:45;;;;;;;7.42;2.37;;;;;;;30.31;46.32;98708.47;1693402;84;21397;-80
2022/09/16 11:53:23;;;;;;;3.72;1.98;;;;;;;30.55;46.19;98707.97;1703940;83;21212;-79
2022/09/16 11:56:51;;;;;;;8.10;2.30;;;;;;;30.62;45.88;98696.69;1661024;85;21196;-79
2022/09/16 12:00:04;;;;;;;5.03;1.67;;;;;;;30.55;44.74;98694.45;1690732;84;21244;-79
2022/09/16 12:03:39;;;;;;;7.03;1.85;;;;;;;30.74;43.89;98703.23;1661511;85;21461;-78
2022/09/16 12:07:05;;;;;;;6.28;1.80;;;;;;;30.84;43.66;98694.08;1658716;84;21229;-80
2022/09/16 12:10:25;;;;;;;9.65;2.20;;;;;;;30.95;43.38;98693.86;1659118;84;21777;-79
2022/09/16 12:14:12;;;;;;;4.40;1.75;;;;;;;31.04;43.92;98689.75;1645116;86;21286;-80
2022/09/16 12:17:25;;;;;;;11.60;1.60;;;;;;;31.21;43.62;98692.13;1665892;84;21224;-79
2022/09/16 12:20:44;;;;;;;7.17;2.00;;;;;;;31.16;43.62;98696.02;1667757;84;21221;-79
2022/09/16 12:23:53;;;;;;;6.05;2.20;;;;;;;31.14;43.34;98689.05;1683339;84;21232;-80
2022/09/16 12:27:27;;;;;;;7.85;1.72;;;;;;;31.01;43.44;98682.00;1668477;84;21278;-80
2022/09/16 12:30:45;;;;;;;16.05;2.17;;;;;;;31.00;43.33;98687.98;1702519;82;21253;-78
2022/09/16 12:34:05;;;;;;;8.60;2.33;;;;;;;30.65;43.75;98691.19;1703407;82;22093;-79
2022/09/16 12:37:18;;;;;;;8.00;2.05;;;;;;;30.56;43.90;98689.04;1714408;82;21470;-78
2022/09/16 12:40:32;;;;;;;13.18;2.27;;;;;;;30.52;43.99;98687.50;1721385;82;21251;-79
2022/09/16 12:43:50;;;;;;;2.90;1.75;;;;;;;30.25;45.23;98692.32;1731096;82;22587;-79
2022/09/16 12:47:20;;;;;;;9.48;2.10;;;;;;;29.92;45.99;98707.74;1723484;82;21735;-78
2022/09/16 12:50:52;;;;;;;4.62;2.08;;;;;;;29.65;46.50;98712.76;1721745;81;21235;-78
2022/09/16 12:54:33;;;;;;;13.08;2.30;;;;;;;29.55;47.33;98706.11;1723362;83;21244;-78
2022/09/16 12:58:15;;;;;;;6.87;2.20;;;;;;;29.36;48.07;98708.48;1725100;81;21188;-79
2022/09/16 13:01:33;;;;;;;7.05;2.72;;;;;;;29.02;47.05;98704.09;1672654;85;21256;-79
2022/09/16 13:04:38;;;;;;;6.30;2.12;;;;;;;28.83;48.31;98730.95;1708215;82;21283;-79
2022/09/16 13:07:42;;;;;;;41.05;5.40;;;;;;;28.55;49.32;98763.67;1687284;84;21246;-79
2022/09/16 13:10:48;;;;;;;17.80;2.95;;;;;;;28.42;53.16;98752.02;1699916;82;21851;-79
2022/09/16 13:13:58;;;;;;;17.20;4.37;;;;;;;28.11;54.52;98716.47;1692688;83;21544;-79
2022/09/16 13:17:04;;;;;;;24.50;4.47;;;;;;;27.80;55.88;98708.75;1708520;83;21797;-79
2022/09/16 13:20:32;;;;;;;7.87;2.45;;;;;;;27.54;58.06;98714.31;1694725;84;21198;-79
2022/09/16 13:23:40;;;;;;;11.28;3.30;;;;;;;27.32;58.71;98709.03;1698768;84;22390;-78
2022/09/16 13:26:50;;;;;;;6.70;2.70;;;;;;;27.10;59.80;98716.98;1723994;83;21153;-78
2022/09/16 13:29:56;;;;;;;10.68;4.47;;;;;;;27.20;60.13;98702.66;1754525;81;21180;-78
2022/09/16 13:33:06;;;;;;;8.90;4.22;;;;;;;26.95;61.78;98712.58;1730686;81;21170;-78
2022/09/16 13:36:29;;;;;;;11.10;6.05;;;;;;;27.33;61.88;98718.28;1690110;85;21187;-78
2022/09/16 13:39:39;;;;;;;17.07;7.97;;;;;;;27.33;62.96;98728.93;1690090;85;22171;-78
2022/09/16 13:42:46;;;;;;;12.05;8.33;;;;;;;27.11;63.80;98724.25;1690702;85;21211;-78
2022/09/16 13:45:52;;;;;;;15.30;9.73;;;;;;;27.06;63.61;98724.94;1689461;85;21908;-78
2022/09/16 13:49:20;;;;;;;21.48;11.65;;;;;;;26.88;64.54;98729.63;1700950;82;21824;-78
2022/09/16 13:52:42;;;;;;;20.90;13.43;;;;;;;26.76;64.76;98748.44;1704874;84;21361;-78
2022/09/16 13:55:47;;;;;;;22.82;12.50;;;;;;;26.68;64.75;98744.45;1704137;84;21773;-78
2022/09/16 13:59:20;;;;;;;18.05;11.20;;;;;;;26.56;64.67;98762.42;1704492;84;21234;-78
2022/09/16 14:02:43;;;;;;;23.85;12.60;;;;;;;26.32;65.08;98765.52;1703366;82;21238;-78
2022/09/16 14:06:09;;;;;;;16.93;10.60;;;;;;;26.17;66.10;98765.89;1707262;83;21467;-77
2022/09/16 14:09:53;;;;;;;17.45;11.03;;;;;;;26.33;65.15;98773.34;1717098;83;21977;-78
2022/09/16 14:13:24;;;;;;;14.23;9.55;;;;;;;26.07;64.22;98774.54;1693415;83;21272;-80
2022/09/16 14:16:39;;;;;;;19.50;9.60;;;;;;;26.08;64.06;98774.21;1683449;83;21228;-78
2022/09/16 14:19:45;;;;;;;18.30;9.70;;;;;;;25.97;64.10;98775.03;1696361;84;21761;-80
2022/09/16 14:22:50;;;;;;;14.87;8.95;;;;;;;25.71;64.51;98772.49;1660419;86;21623;-80
2022/09/16 14:25:56;;;;;;;15.98;9.25;;;;;;;25.57;64.04;98773.91;1708392;84;22046;-80
2022/09/16 14:29:10;;;;;;;20.20;8.25;;;;;;;25.73;63.19;98776.62;1690026;85;21228;-78
2022/09/16 14:32:17;;;;;;;12.28;8.73;;;;;;;25.61;63.55;98782.52;1695405;83;22485;-78
2022/09/16 14:35:29;;;;;;;9.60;6.90;;;;;;;25.61;63.39;98790.34;1714735;83;21273;-78
2022/09/16 14:38:45;;;;;;;13.48;7.08;;;;;;;25.34;63.54;98790.34;1684213;85;21167;-78
2022/09/16 14:41:54;;;;;;;33.53;6.72;;;;;;;25.52;62.75;98791.38;1693769;83;21194;-78
2022/09/16 14:45:00;;;;;;;11.30;6.10;;;;;;;25.42;62.84;98800.24;1714538;83;22165;-78
2022/09/16 14:48:08;;;;;;;12.78;6.55;;;;;;;25.40;63.04;98804.48;1686301;83;22613;-79
2022/09/16 14:51:21;;;;;;;14.73;7.37;;;;;;;25.34;63.63;98814.95;1688767;85;21610;-78
2022/09/16 14:54:22;;;;;;;15.70;8.45;;;;;;;25.41;63.31;98807.56;1718095;83;21220;-79
2022/09/16 14:57:28;;;;;;;14.70;7.50;;;;;;;25.33;63.44;98812.47;1725077;83;21205;-79
2022/09/16 15:00:41;;;;;;;15.58;8.28;;;;;;;25.51;63.03;98814.35;1689875;85;21854;-79